Terminal Aerodrome Forecast
Issued by NWS Newport/Morehead City, NC

Home | Current Version | Previous Version | Graphics & Text | Print | Product List | Glossary On
Versions: 1 2 3 4 5 6 7 8 9 10 11 12 13 14
000
FTUS42 KMHX 311000 AAA
TAFEWN
TAF AMD
KEWN 311035Z 3111/0106 00000KT 1SM BR BKN003
     FM311200 17008KT P6SM SCT040
     FM010100 19004KT P6SM SKC=

USA.gov is the U.S. government's official web portal to all federal, state and local government web resources and services.